Vanquish — PHCU — position and weather

sailwx.info

Track history (hours):
 
Tides and Currents Weather Stations Pressure Air Temp Water Temp Dewpoint Dewpoint Depression Visibility Wind Speed Wind Dir Waves Ship Positions

Vanquish

Last reported at 2014-Dec-22 20:15 UTC. Time now 2014-Dec-23 02:20 UTC.
Position N 53°60' W 006°02'.

MMSI: 246138952.

Date/timePositionNaut miles runAvg speedWind from/ knotsBaromVisibWave heightAir tempDewpointWater temp
2014-Dec-22 20:15N 53°60' W 006°02'3 0.1
2014-Dec-21 13:33N 54°02' W 006°07'1110.5
2014-Dec-21 12:32N 53°52' W 005°58'17910.0
2014-Dec-20 18:33N 51°22' W 003°17'1211.9
2014-Dec-20 17:33N 51°26' W 002°59'1110.8
2014-Dec-20 16:33N 51°30' W 002°43'0 0.5
2014-Dec-20 15:31N 51°30' W 002°42'0 0.0
2014-Dec-20 14:31N 51°30' W 002°42'0 0.0
2014-Dec-20 13:31N 51°30' W 002°42'0 0.0
2014-Dec-20 12:31N 51°30' W 002°42'0 0.0
2014-Dec-20 11:31N 51°30' W 002°42'0 0.0
2014-Dec-20 10:31N 51°30' W 002°42'0 0.0
2014-Dec-20 09:31N 51°30' W 002°42'0 0.0
2014-Dec-20 08:31N 51°30' W 002°42'0 0.0
2014-Dec-20 07:31N 51°30' W 002°42'0 0.0
2014-Dec-20 06:31N 51°30' W 002°42'0 0.0
2014-Dec-20 05:31N 51°30' W 002°42'0 0.0
2014-Dec-20 04:31N 51°30' W 002°42'0 0.0
2014-Dec-20 03:31N 51°30' W 002°42'0 0.0
2014-Dec-20 02:31N 51°30' W 002°42'0 0.0
2014-Dec-20 01:31N 51°30' W 002°42'0 0.0
2014-Dec-20 00:31N 51°30' W 002°42'0 0.0
2014-Dec-19 23:31N 51°30' W 002°42'0 0.0
2014-Dec-19 22:31N 51°30' W 002°42'0 0.0
2014-Dec-19 21:31N 51°30' W 002°42'0 0.0
2014-Dec-19 20:31N 51°30' W 002°42'0 0.0
2014-Dec-19 19:31N 51°30' W 002°42'0 0.0
2014-Dec-19 18:31N 51°30' W 002°42'0 0.0
2014-Dec-19 17:31N 51°30' W 002°42'0 0.0
2014-Dec-19 16:31N 51°30' W 002°42'0 0.0
2014-Dec-19 15:31N 51°30' W 002°42'0 0.0
2014-Dec-19 14:31N 51°30' W 002°42'0 0.0
2014-Dec-19 13:31N 51°30' W 002°42'0 0.0
2014-Dec-19 12:31N 51°30' W 002°42'0 0.0
2014-Dec-19 11:31N 51°30' W 002°42'0 0.0
2014-Dec-19 10:31N 51°30' W 002°42'0 0.0
2014-Dec-19 09:31N 51°30' W 002°42'0 0.0
2014-Dec-19 08:31N 51°30' W 002°42'0 0.0
2014-Dec-19 07:31N 51°30' W 002°42'0 0.0
2014-Dec-19 06:31N 51°30' W 002°42'0 0.0
2014-Dec-19 05:31N 51°30' W 002°42'0 0.1
2014-Dec-19 04:33N 51°30' W 002°42'0 0.4
2014-Dec-19 03:33N 51°30' W 002°43'6 5.8
2014-Dec-19 02:33N 51°28' W 002°52'1414.3
2014-Dec-19 01:33N 51°21' W 003°12'105 7.8
2014-Dec-18 12:11N 51°58' W 005°50'4 7.0
2014-Dec-18 11:33N 52°03' W 005°48'8 8.0
2014-Dec-18 10:33N 52°11' W 005°47'8 7.8
2014-Dec-18 09:33N 52°18' W 005°45'7 7.5
2014-Dec-18 08:33N 52°26' W 005°44'8 7.4
2014-Dec-18 07:33N 52°33' W 005°43'83 9.2
2014-Dec-17 22:33N 53°56' W 005°60'1110.8
2014-Dec-17 21:33N 54°04' W 006°12'3 0.2
2014-Dec-17 07:03N 54°02' W 006°08'710.2
2014-Dec-17 06:24N 53°57' W 006°01'18310.9
2014-Dec-16 13:33N 51°21' W 003°23'1111.5
2014-Dec-16 12:33N 51°24' W 003°06'1111.1
2014-Dec-16 11:33N 51°29' W 002°50'5 4.6
2014-Dec-16 10:31N 51°30' W 002°42'0 0.2
2014-Dec-16 09:31N 51°30' W 002°42'0 0.0
2014-Dec-16 08:31N 51°30' W 002°42'0 0.0
2014-Dec-16 07:31N 51°30' W 002°42'0 0.0
2014-Dec-16 06:31N 51°30' W 002°42'0 0.0
2014-Dec-16 05:28N 51°30' W 002°42'0 0.0
2014-Dec-16 04:28N 51°30' W 002°42'0 0.0
2014-Dec-16 03:31N 51°30' W 002°42'0 0.0
2014-Dec-16 02:31N 51°30' W 002°42'0 0.0
2014-Dec-16 01:07N 51°30' W 002°42'0 0.0
2014-Dec-16 00:07N 51°30' W 002°42'0 0.0
2014-Dec-15 23:31N 51°30' W 002°42'0 0.0
2014-Dec-15 22:31N 51°30' W 002°42'0 0.0
2014-Dec-15 21:31N 51°30' W 002°42'0 0.0
2014-Dec-15 20:31N 51°30' W 002°42'0 0.0
2014-Dec-15 19:31N 51°30' W 002°42'0 0.0
2014-Dec-15 18:31N 51°30' W 002°42'0 0.0
2014-Dec-15 17:31N 51°30' W 002°42'0 0.0
2014-Dec-15 16:31N 51°30' W 002°42'0 0.0
2014-Dec-15 15:31N 51°30' W 002°42'0 0.0
2014-Dec-15 14:31N 51°30' W 002°42'0 0.0
2014-Dec-15 13:31N 51°30' W 002°42'0 0.0
2014-Dec-15 12:28N 51°30' W 002°42'0 0.0
2014-Dec-15 11:31N 51°30' W 002°42'0 0.0
2014-Dec-15 10:31N 51°30' W 002°42'0 0.0
2014-Dec-15 09:31N 51°30' W 002°42'0 0.0
2014-Dec-15 08:31N 51°30' W 002°42'0 0.0
2014-Dec-15 07:31N 51°30' W 002°42'0 0.0
2014-Dec-15 06:31N 51°30' W 002°42'0 0.0
2014-Dec-15 05:31N 51°30' W 002°42'0 0.0
2014-Dec-15 04:31N 51°30' W 002°42'0 0.0
2014-Dec-15 03:31N 51°30' W 002°42'0 0.0
2014-Dec-15 02:31N 51°30' W 002°42'0 0.0
2014-Dec-15 01:31N 51°30' W 002°42'0 0.0
2014-Dec-15 00:31N 51°30' W 002°42'0 0.0
2014-Dec-14 23:31N 51°30' W 002°42'0 0.0
2014-Dec-14 22:31N 51°30' W 002°42'0 0.2
2014-Dec-14 21:34N 51°30' W 002°42'1 0.7
2014-Dec-14 20:33N 51°30' W 002°44'1413.8
2014-Dec-14 19:33N 51°24' W 003°03'1211.5
2014-Dec-14 18:33N 51°21' W 003°21'102 7.7
2014-Dec-14 05:22N 52°03' W 005°51'8 9.9
2014-Dec-14 04:34N 52°11' W 005°48'10 9.4
2014-Dec-14 03:32N 52°20' W 005°46'9 9.1
2014-Dec-14 02:33N 52°29' W 005°43'10 9.5
2014-Dec-14 01:32N 52°39' W 005°41'7310.2
2014-Dec-13 18:23N 53°51' W 006°00'810.1
2014-Dec-13 17:33N 53°59' W 006°01'  
Track history (hours):
 
Tides and Currents Weather Stations Pressure Air Temp Water Temp Dewpoint Dewpoint Depression Visibility Wind Speed Wind Dir Waves Ship Positions

Vanquish

Last reported at 2014-Dec-22 20:15 UTC. Time now 2014-Dec-23 02:20 UTC.
Position N 53°60' W 006°02'.

MMSI: 246138952.

Date/timePositionNaut miles runAvg speedWind from/ knotsBaromVisibWave heightAir tempDewpointWater temp
2014-Dec-22 20:15N 53°60' W 006°02'3 0.1
2014-Dec-21 13:33N 54°02' W 006°07'1110.5
2014-Dec-21 12:32N 53°52' W 005°58'17910.0
2014-Dec-20 18:33N 51°22' W 003°17'1211.9
2014-Dec-20 17:33N 51°26' W 002°59'1110.8
2014-Dec-20 16:33N 51°30' W 002°43'0 0.5
2014-Dec-20 15:31N 51°30' W 002°42'0 0.0
2014-Dec-20 14:31N 51°30' W 002°42'0 0.0
2014-Dec-20 13:31N 51°30' W 002°42'0 0.0
2014-Dec-20 12:31N 51°30' W 002°42'0 0.0
2014-Dec-20 11:31N 51°30' W 002°42'0 0.0
2014-Dec-20 10:31N 51°30' W 002°42'0 0.0
2014-Dec-20 09:31N 51°30' W 002°42'0 0.0
2014-Dec-20 08:31N 51°30' W 002°42'0 0.0
2014-Dec-20 07:31N 51°30' W 002°42'0 0.0
2014-Dec-20 06:31N 51°30' W 002°42'0 0.0
2014-Dec-20 05:31N 51°30' W 002°42'0 0.0
2014-Dec-20 04:31N 51°30' W 002°42'0 0.0
2014-Dec-20 03:31N 51°30' W 002°42'0 0.0
2014-Dec-20 02:31N 51°30' W 002°42'0 0.0
2014-Dec-20 01:31N 51°30' W 002°42'0 0.0
2014-Dec-20 00:31N 51°30' W 002°42'0 0.0
2014-Dec-19 23:31N 51°30' W 002°42'0 0.0
2014-Dec-19 22:31N 51°30' W 002°42'0 0.0
2014-Dec-19 21:31N 51°30' W 002°42'0 0.0
2014-Dec-19 20:31N 51°30' W 002°42'0 0.0
2014-Dec-19 19:31N 51°30' W 002°42'0 0.0
2014-Dec-19 18:31N 51°30' W 002°42'0 0.0
2014-Dec-19 17:31N 51°30' W 002°42'0 0.0
2014-Dec-19 16:31N 51°30' W 002°42'0 0.0
2014-Dec-19 15:31N 51°30' W 002°42'0 0.0
2014-Dec-19 14:31N 51°30' W 002°42'0 0.0
2014-Dec-19 13:31N 51°30' W 002°42'0 0.0
2014-Dec-19 12:31N 51°30' W 002°42'0 0.0
2014-Dec-19 11:31N 51°30' W 002°42'0 0.0
2014-Dec-19 10:31N 51°30' W 002°42'0 0.0
2014-Dec-19 09:31N 51°30' W 002°42'0 0.0
2014-Dec-19 08:31N 51°30' W 002°42'0 0.0
2014-Dec-19 07:31N 51°30' W 002°42'0 0.0
2014-Dec-19 06:31N 51°30' W 002°42'0 0.0
2014-Dec-19 05:31N 51°30' W 002°42'0 0.1
2014-Dec-19 04:33N 51°30' W 002°42'0 0.4
2014-Dec-19 03:33N 51°30' W 002°43'6 5.8
2014-Dec-19 02:33N 51°28' W 002°52'1414.3
2014-Dec-19 01:33N 51°21' W 003°12'105 7.8
2014-Dec-18 12:11N 51°58' W 005°50'4 7.0
2014-Dec-18 11:33N 52°03' W 005°48'8 8.0
2014-Dec-18 10:33N 52°11' W 005°47'8 7.8
2014-Dec-18 09:33N 52°18' W 005°45'7 7.5
2014-Dec-18 08:33N 52°26' W 005°44'8 7.4
2014-Dec-18 07:33N 52°33' W 005°43'83 9.2
2014-Dec-17 22:33N 53°56' W 005°60'1110.8
2014-Dec-17 21:33N 54°04' W 006°12'3 0.2
2014-Dec-17 07:03N 54°02' W 006°08'710.2
2014-Dec-17 06:24N 53°57' W 006°01'18310.9
2014-Dec-16 13:33N 51°21' W 003°23'1111.5
2014-Dec-16 12:33N 51°24' W 003°06'1111.1
2014-Dec-16 11:33N 51°29' W 002°50'5 4.6
2014-Dec-16 10:31N 51°30' W 002°42'0 0.2
2014-Dec-16 09:31N 51°30' W 002°42'0 0.0
2014-Dec-16 08:31N 51°30' W 002°42'0 0.0
2014-Dec-16 07:31N 51°30' W 002°42'0 0.0
2014-Dec-16 06:31N 51°30' W 002°42'0 0.0
2014-Dec-16 05:28N 51°30' W 002°42'0 0.0
2014-Dec-16 04:28N 51°30' W 002°42'0 0.0
2014-Dec-16 03:31N 51°30' W 002°42'0 0.0
2014-Dec-16 02:31N 51°30' W 002°42'0 0.0
2014-Dec-16 01:07N 51°30' W 002°42'0 0.0
2014-Dec-16 00:07N 51°30' W 002°42'0 0.0
2014-Dec-15 23:31N 51°30' W 002°42'0 0.0
2014-Dec-15 22:31N 51°30' W 002°42'0 0.0
2014-Dec-15 21:31N 51°30' W 002°42'0 0.0
2014-Dec-15 20:31N 51°30' W 002°42'0 0.0
2014-Dec-15 19:31N 51°30' W 002°42'0 0.0
2014-Dec-15 18:31N 51°30' W 002°42'0 0.0
2014-Dec-15 17:31N 51°30' W 002°42'0 0.0
2014-Dec-15 16:31N 51°30' W 002°42'0 0.0
2014-Dec-15 15:31N 51°30' W 002°42'0 0.0
2014-Dec-15 14:31N 51°30' W 002°42'0 0.0
2014-Dec-15 13:31N 51°30' W 002°42'0 0.0
2014-Dec-15 12:28N 51°30' W 002°42'0 0.0
2014-Dec-15 11:31N 51°30' W 002°42'0 0.0
2014-Dec-15 10:31N 51°30' W 002°42'0 0.0
2014-Dec-15 09:31N 51°30' W 002°42'0 0.0
2014-Dec-15 08:31N 51°30' W 002°42'0 0.0
2014-Dec-15 07:31N 51°30' W 002°42'0 0.0
2014-Dec-15 06:31N 51°30' W 002°42'0 0.0
2014-Dec-15 05:31N 51°30' W 002°42'0 0.0
2014-Dec-15 04:31N 51°30' W 002°42'0 0.0
2014-Dec-15 03:31N 51°30' W 002°42'0 0.0
2014-Dec-15 02:31N 51°30' W 002°42'0 0.0
2014-Dec-15 01:31N 51°30' W 002°42'0 0.0
2014-Dec-15 00:31N 51°30' W 002°42'0 0.0
2014-Dec-14 23:31N 51°30' W 002°42'0 0.0
2014-Dec-14 22:31N 51°30' W 002°42'0 0.2
2014-Dec-14 21:34N 51°30' W 002°42'1 0.7
2014-Dec-14 20:33N 51°30' W 002°44'1413.8
2014-Dec-14 19:33N 51°24' W 003°03'1211.5
2014-Dec-14 18:33N 51°21' W 003°21'102 7.7
2014-Dec-14 05:22N 52°03' W 005°51'8 9.9
2014-Dec-14 04:34N 52°11' W 005°48'10 9.4
2014-Dec-14 03:32N 52°20' W 005°46'9 9.1
2014-Dec-14 02:33N 52°29' W 005°43'10 9.5
2014-Dec-14 01:32N 52°39' W 005°41'7310.2
2014-Dec-13 18:23N 53°51' W 006°00'810.1
2014-Dec-13 17:33N 53°59' W 006°01'  

Dump ship's entire track history